createdAt,value
2022-12-13T00:00:10.646Z,97357.25
2022-12-13T00:01:21.017Z,97348.19
2022-12-13T00:02:27.127Z,97358.09
2022-12-13T00:03:31.138Z,97357.78
2022-12-13T00:04:37.335Z,97362.66
2022-12-13T00:05:46.463Z,97367.88
2022-12-13T00:06:55.350Z,97364.53
2022-12-13T00:07:59.588Z,97364.97
2022-12-13T00:09:07.347Z,97364.84
2022-12-13T00:10:14.138Z,97360.41
2022-12-13T00:11:18.013Z,97361.41
2022-12-13T00:12:25.239Z,97367.06
2022-12-13T00:13:29.293Z,97356.88
2022-12-13T00:14:35.539Z,97356.88
2022-12-13T00:15:40.087Z,97366.09
2022-12-13T00:16:49.763Z,97365.56
2022-12-13T00:17:53.970Z,97357.19
2022-12-13T00:19:02.989Z,97357.63
2022-12-13T00:20:07.603Z,97362.25
2022-12-13T00:21:21.150Z,97368.41
2022-12-13T00:22:25.463Z,97363.28
2022-12-13T00:23:32.458Z,97358.09
2022-12-13T00:24:44.381Z,97362.09
2022-12-13T00:25:49.511Z,97365.06
2022-12-13T00:26:59.169Z,97368.63
2022-12-13T00:28:02.487Z,97370.81
2022-12-13T00:29:11.594Z,97368.72
2022-12-13T00:30:15.151Z,97370.38
2022-12-13T00:32:49.532Z,97374.41
2022-12-13T00:33:53.647Z,97379.50
2022-12-13T00:35:00.550Z,97378.25
2022-12-13T00:36:07.862Z,97384.94
2022-12-13T00:37:16.449Z,97381.38
2022-12-13T00:38:20.137Z,97382.31
2022-12-13T00:39:26.374Z,97389.91
2022-12-13T00:40:33.176Z,97386.97
2022-12-13T00:41:37.525Z,97388.66
2022-12-13T00:42:43.499Z,97389.06
2022-12-13T00:43:47.973Z,97382.31
2022-12-13T00:44:53.975Z,97394.19
2022-12-13T00:45:58.310Z,97384.81
2022-12-13T00:47:04.290Z,97388.75
2022-12-13T00:48:07.786Z,97392.53
2022-12-13T00:49:16.132Z,97386.91
2022-12-13T00:50:22.532Z,97386.91
2022-12-13T00:51:29.126Z,97385.34
2022-12-13T00:52:38.224Z,97391.28
2022-12-13T00:53:41.954Z,97397.06
2022-12-13T00:54:47.909Z,97398.75
2022-12-13T00:55:51.278Z,97401.75
2022-12-13T00:56:58.210Z,97386.38
2022-12-13T00:58:01.500Z,97396.56
2022-12-13T00:59:08.563Z,97394.69
2022-12-13T01:00:15.794Z,97391.28
2022-12-13T01:01:24.782Z,97393.66
2022-12-13T01:02:31.567Z,97388.66
2022-12-13T01:03:35.343Z,97390.31
2022-12-13T01:04:41.373Z,97391.19
2022-12-13T01:06:13.649Z,97396.91
2022-12-13T01:07:10.576Z,97397.31
2022-12-13T01:08:17.391Z,97392.13
2022-12-13T01:09:30.095Z,97399.91
2022-12-13T01:10:33.417Z,97400.34
2022-12-13T01:11:39.316Z,97405.66
2022-12-13T01:12:42.703Z,97400.34
2022-12-13T01:13:49.626Z,97410.22
2022-12-13T01:14:56.317Z,97407.53
2022-12-13T01:16:04.729Z,97411.88
2022-12-13T01:17:11.772Z,97407.41
2022-12-13T01:18:18.537Z,97388.19
2022-12-13T01:19:25.943Z,97396.19
2022-12-13T01:20:29.187Z,97402.13
2022-12-13T01:21:35.793Z,97398.47
2022-12-13T01:22:41.857Z,97401.09
2022-12-13T01:23:48.481Z,97400.78
2022-12-13T01:24:55.284Z,97402.84
2022-12-13T01:25:58.798Z,97400.78
2022-12-13T01:27:04.821Z,97378.44
2022-12-13T01:28:08.092Z,97399.53
2022-12-13T01:29:17.018Z,97398.69
2022-12-13T01:30:21.145Z,97401.59
2022-12-13T01:31:28.241Z,97397.84
2022-12-13T01:32:34.135Z,97397.97
2022-12-13T01:33:39.320Z,97402.22
2022-12-13T01:34:45.312Z,97404.72
2022-12-13T01:35:49.845Z,97404.09
2022-12-13T01:36:58.102Z,97401.19
2022-12-13T01:38:02.338Z,97410.66
2022-12-13T01:39:26.665Z,97405.34
2022-12-13T01:40:32.981Z,97399.53
2022-12-13T01:41:47.717Z,97405.34
2022-12-13T01:42:51.023Z,97400.78
2022-12-13T01:44:03.438Z,97404.31
2022-12-13T01:45:27.369Z,97401.91
2022-12-13T01:46:32.584Z,97403.78
2022-12-13T01:47:48.886Z,97408.38
2022-12-13T01:49:05.529Z,97405.34
2022-12-13T01:50:35.588Z,97398.47
2022-12-13T01:51:48.169Z,97410.22
2022-12-13T01:53:00.213Z,97409.94
2022-12-13T01:54:09.050Z,97409.72
2022-12-13T01:55:23.217Z,97400.78
2022-12-13T01:56:37.140Z,97398.50
2022-12-13T01:57:50.076Z,97407.03
2022-12-13T01:58:58.397Z,97410.16
2022-12-13T02:00:05.083Z,97382.47
2022-12-13T02:01:11.106Z,97402.03
2022-12-13T02:02:19.295Z,97409.72
2022-12-13T02:03:23.904Z,97414.47
2022-12-13T02:04:44.242Z,97410.97
2022-12-13T02:06:01.178Z,97410.75
2022-12-13T02:07:07.808Z,97419.59
2022-12-13T02:08:19.850Z,97415.94
2022-12-13T02:09:24.306Z,97419.50
2022-12-13T02:10:35.633Z,97411.50
2022-12-13T02:11:43.855Z,97413.78
2022-12-13T02:12:54.497Z,97426.34
2022-12-13T02:13:57.982Z,97418.75
2022-12-13T02:15:11.964Z,97418.03
2022-12-13T02:16:44.638Z,97421.16
2022-12-13T02:18:24.196Z,97415.00
2022-12-13T02:20:22.520Z,97422.81
2022-12-13T02:21:50.194Z,97420.00
2022-12-13T02:23:40.032Z,97424.47
2022-12-13T02:25:09.105Z,97408.38
2022-12-13T02:27:01.228Z,97424.19
2022-12-13T02:28:38.423Z,97420.53
2022-12-13T02:30:30.748Z,97421.06
2022-12-13T02:31:51.146Z,97414.69
2022-12-13T02:33:32.813Z,97425.59
2022-12-13T02:34:46.501Z,97418.63
2022-12-13T02:36:05.909Z,97421.22
2022-12-13T02:37:26.696Z,97406.38
2022-12-13T02:38:47.849Z,97411.66
2022-12-13T02:40:05.688Z,97408.00
2022-12-13T02:41:23.816Z,97395.38
2022-12-13T02:42:41.529Z,97420.00
2022-12-13T02:44:01.251Z,97421.88
2022-12-13T02:45:20.511Z,97413.44
2022-12-13T02:46:38.934Z,97408.97
2022-12-13T02:47:44.606Z,97413.06
2022-12-13T02:48:58.077Z,97421.59
2022-12-13T02:50:10.013Z,97412.84
2022-12-13T02:51:20.733Z,97415.94
2022-12-13T02:52:31.508Z,97394.44
2022-12-13T02:53:41.495Z,97415.66
2022-12-13T02:54:45.052Z,97408.06
2022-12-13T02:55:51.683Z,97419.81
2022-12-13T02:56:56.886Z,97413.44
2022-12-13T02:58:02.820Z,97408.34
2022-12-13T02:59:17.871Z,97411.78
2022-12-13T03:00:37.907Z,97415.22
2022-12-13T03:02:11.982Z,97413.25
2022-12-13T03:03:38.796Z,97417.00
2022-12-13T03:05:17.633Z,97419.50
2022-12-13T03:06:47.676Z,97419.50
2022-12-13T03:08:13.402Z,97425.09
2022-12-13T03:09:43.170Z,97419.06
2022-12-13T03:11:03.940Z,97422.72
2022-12-13T03:12:41.692Z,97419.91
2022-12-13T03:13:58.504Z,97421.59
2022-12-13T03:15:18.707Z,97428.22
2022-12-13T03:16:36.687Z,97425.44
2022-12-13T03:17:55.089Z,97405.91
2022-12-13T03:19:03.155Z,97428.44
2022-12-13T03:20:23.312Z,97432.38
2022-12-13T03:21:30.155Z,97422.19
2022-12-13T03:22:35.224Z,97435.19
2022-12-13T03:23:42.037Z,97426.25
2022-12-13T03:24:45.614Z,97429.81
2022-12-13T03:25:58.512Z,97426.34
2022-12-13T03:27:02.153Z,97431.75
2022-12-13T03:28:08.703Z,97428.03
2022-12-13T03:29:12.045Z,97432.91
2022-12-13T03:30:18.007Z,97431.34
2022-12-13T03:31:25.770Z,97436.53
2022-12-13T03:32:29.232Z,97433.94
2022-12-13T03:33:38.982Z,97437.41
2022-12-13T03:34:44.221Z,97431.88
2022-12-13T03:35:53.074Z,97436.13
2022-12-13T03:37:00.024Z,97427.38
2022-12-13T03:38:05.845Z,97432.59
2022-12-13T03:39:11.956Z,97435.72
2022-12-13T03:40:15.581Z,97441.56
2022-12-13T03:41:31.600Z,97442.69
2022-12-13T03:42:35.975Z,97441.84
2022-12-13T03:43:42.928Z,97438.84
2022-12-13T03:44:46.165Z,97436.44
2022-12-13T03:45:52.150Z,97441.34
2022-12-13T03:46:57.987Z,97438.44
2022-12-13T03:48:05.364Z,97444.25
2022-12-13T03:49:17.421Z,97437.91
2022-12-13T03:50:27.097Z,97438.00
2022-12-13T03:51:33.331Z,97438.00
2022-12-13T03:52:36.744Z,97441.84
2022-12-13T03:53:43.565Z,97431.75
2022-12-13T03:54:47.560Z,97434.88
2022-12-13T03:55:53.850Z,97442.47
2022-12-13T03:56:58.239Z,97418.66
2022-12-13T03:58:07.865Z,97436.97
2022-12-13T03:59:12.350Z,97439.56
2022-12-13T04:00:19.587Z,97437.78
2022-12-13T04:01:25.513Z,97446.84
2022-12-13T04:02:31.198Z,97441.94
2022-12-13T04:03:37.893Z,97440.28
2022-12-13T04:04:44.675Z,97441.56
2022-12-13T04:05:50.726Z,97443.84
2022-12-13T04:06:54.092Z,97442.59
2022-12-13T04:08:02.363Z,97439.34
2022-12-13T04:09:05.921Z,97427.72
2022-12-13T04:10:26.459Z,97444.97
2022-12-13T04:11:45.100Z,97442.47
2022-12-13T04:13:03.366Z,97445.28
2022-12-13T04:14:06.695Z,97446.63
2022-12-13T04:15:14.257Z,97440.91
2022-12-13T04:16:18.285Z,97450.78
2022-12-13T04:17:24.308Z,97448.59
2022-12-13T04:18:27.660Z,97454.84
2022-12-13T04:19:33.994Z,97450.91
2022-12-13T04:20:40.722Z,97449.66
2022-12-13T04:21:46.653Z,97440.09
2022-12-13T04:22:50.103Z,97454.63
2022-12-13T04:23:56.023Z,97449.44
2022-12-13T04:25:05.523Z,97456.94
2022-12-13T04:26:14.598Z,97455.06
2022-12-13T04:27:17.932Z,97454.22
2022-12-13T04:28:23.943Z,97449.75
2022-12-13T04:29:34.451Z,97447.56
2022-12-13T04:30:41.350Z,97449.03
2022-12-13T04:31:45.545Z,97444.34
2022-12-13T04:32:52.005Z,97443.41
2022-12-13T04:33:55.251Z,97446.75
2022-12-13T04:35:01.751Z,97453.19
2022-12-13T04:36:11.589Z,97450.69
2022-12-13T04:37:15.932Z,97449.53
2022-12-13T04:38:23.179Z,97440.09
2022-12-13T04:39:34.445Z,97447.66
2022-12-13T04:40:38.093Z,97450.06
2022-12-13T04:41:44.254Z,97446.94
2022-12-13T04:42:48.486Z,97445.06
2022-12-13T04:44:00.484Z,97436.75
2022-12-13T04:45:04.384Z,97445.59
2022-12-13T04:46:10.429Z,97443.63
2022-12-13T04:47:13.664Z,97442.59
2022-12-13T04:48:30.989Z,97451.75
2022-12-13T04:49:35.392Z,97443.00
2022-12-13T04:50:41.234Z,97448.72
2022-12-13T04:51:47.586Z,97452.78
2022-12-13T04:52:53.991Z,97453.19
2022-12-13T04:54:23.526Z,97448.72
2022-12-13T04:55:24.175Z,97449.97
2022-12-13T04:56:27.592Z,97452.25
2022-12-13T04:57:33.668Z,97454.94
2022-12-13T04:58:37.137Z,97462.31
2022-12-13T04:59:47.211Z,97462.13
2022-12-13T05:00:53.199Z,97463.69
2022-12-13T05:01:56.612Z,97451.50
2022-12-13T05:03:02.559Z,97463.38
2022-12-13T05:04:08.818Z,97455.38
2022-12-13T05:05:13.380Z,97460.28
2022-12-13T05:06:26.824Z,97454.13
2022-12-13T05:07:36.443Z,97454.22
2022-12-13T05:08:49.088Z,97460.88
2022-12-13T05:09:52.452Z,97459.41
2022-12-13T05:10:59.232Z,97455.16
2022-12-13T05:12:02.531Z,97459.09
2022-12-13T05:13:10.295Z,97460.66
2022-12-13T05:14:13.618Z,97458.41
2022-12-13T05:15:19.881Z,97454.25
2022-12-13T05:16:24.683Z,97456.50
2022-12-13T05:17:30.815Z,97466.72
2022-12-13T05:18:36.658Z,97452.84
2022-12-13T05:19:42.615Z,97461.50
2022-12-13T05:20:48.584Z,97463.91
2022-12-13T05:21:52.773Z,97467.09
2022-12-13T05:23:02.220Z,97459.75
2022-12-13T05:24:10.604Z,97462.94
2022-12-13T05:25:16.797Z,97456.63
2022-12-13T05:26:23.129Z,97455.56
2022-12-13T05:27:29.998Z,97463.25
2022-12-13T05:28:34.816Z,97455.38
2022-12-13T05:29:41.863Z,97456.84
2022-12-13T05:30:45.848Z,97454.84
2022-12-13T05:31:51.856Z,97459.09
2022-12-13T05:32:59.059Z,97454.56
2022-12-13T05:34:02.507Z,97460.47
2022-12-13T05:35:10.308Z,97468.97
2022-12-13T05:36:16.187Z,97460.34
2022-12-13T05:37:22.139Z,97448.50
2022-12-13T05:38:30.061Z,97451.13
2022-12-13T05:39:35.934Z,97462.53
2022-12-13T05:40:39.259Z,97459.22
2022-12-13T05:41:45.799Z,97464.50
2022-12-13T05:42:51.848Z,97471.47
2022-12-13T05:44:05.695Z,97458.41
2022-12-13T05:45:13.735Z,97457.44
2022-12-13T05:46:17.453Z,97454.31
2022-12-13T05:47:23.373Z,97458.38
2022-12-13T05:48:26.711Z,97463.47
2022-12-13T05:49:33.651Z,97458.78
2022-12-13T05:50:38.511Z,97455.06
2022-12-13T05:51:44.788Z,97454.84
2022-12-13T05:52:48.097Z,97453.81
2022-12-13T05:53:56.632Z,97459.00
2022-12-13T05:55:03.401Z,97459.09
2022-12-13T05:56:10.200Z,97463.59
2022-12-13T05:57:16.676Z,97467.84
2022-12-13T05:58:23.266Z,97463.59
2022-12-13T05:59:29.561Z,97466.06
2022-12-13T06:00:33.734Z,97463.78
2022-12-13T06:01:44.084Z,97468.16
2022-12-13T06:02:47.577Z,97472.94
2022-12-13T06:03:55.843Z,97468.59
2022-12-13T06:05:03.187Z,97457.53
2022-12-13T06:06:14.060Z,97468.69
2022-12-13T06:07:17.585Z,97467.53
2022-12-13T06:08:24.381Z,97462.34
2022-12-13T06:09:39.990Z,97476.47
2022-12-13T06:10:46.253Z,97463.38
2022-12-13T06:12:01.104Z,97473.88
2022-12-13T06:13:32.203Z,97478.25
2022-12-13T06:14:33.957Z,97465.44
2022-12-13T06:15:44.576Z,97472.09
2022-12-13T06:16:50.813Z,97471.16
2022-12-13T06:17:55.053Z,97478.00
2022-12-13T06:19:04.331Z,97473.44
2022-12-13T06:20:23.482Z,97478.53
2022-12-13T06:21:40.759Z,97480.50
2022-12-13T06:22:49.695Z,97479.38
2022-12-13T06:23:56.405Z,97490.28
2022-12-13T06:25:02.916Z,97487.50
2022-12-13T06:26:11.213Z,97485.72
2022-12-13T06:27:17.020Z,97488.31
2022-12-13T06:28:23.467Z,97483.41
2022-12-13T06:29:30.335Z,97478.31
2022-12-13T06:30:33.752Z,97484.47
2022-12-13T06:31:39.946Z,97488.81
2022-12-13T06:32:45.986Z,97494.66
2022-12-13T06:33:52.155Z,97489.16
2022-12-13T06:34:58.914Z,97494.13
2022-12-13T06:36:08.047Z,97495.28
2022-12-13T06:37:17.303Z,97493.53
2022-12-13T06:38:31.126Z,97489.16
2022-12-13T06:39:38.544Z,97488.41
2022-12-13T06:40:47.934Z,97489.75
2022-12-13T06:41:54.736Z,97497.47
2022-12-13T06:43:01.083Z,97501.19
2022-12-13T06:44:05.419Z,97498.31
2022-12-13T06:45:12.336Z,97485.69
2022-12-13T06:46:19.270Z,97494.56
2022-12-13T06:47:31.520Z,97499.72
2022-12-13T06:48:40.752Z,97505.94
2022-12-13T06:49:44.706Z,97505.53
2022-12-13T06:50:51.463Z,97507.00
2022-12-13T06:51:58.180Z,97505.53
2022-12-13T06:53:04.250Z,97502.56
2022-12-13T06:54:10.359Z,97496.84
2022-12-13T06:55:24.107Z,97503.78
2022-12-13T06:56:33.909Z,97504.00
2022-12-13T06:57:37.979Z,97509.00
2022-12-13T06:58:47.027Z,97490.06
2022-12-13T06:59:53.431Z,97510.97
2022-12-13T07:01:06.731Z,97508.47
2022-12-13T07:02:25.529Z,97513.25
2022-12-13T07:03:32.961Z,97512.22
2022-12-13T07:04:38.840Z,97515.56
2022-12-13T07:05:45.392Z,97518.69
2022-12-13T07:06:51.462Z,97514.94
2022-12-13T07:07:57.893Z,97517.66
2022-12-13T07:09:04.695Z,97522.41
2022-12-13T07:10:22.787Z,97514.00
2022-12-13T07:11:34.977Z,97518.44
2022-12-13T07:12:40.962Z,97517.19
2022-12-13T07:13:48.222Z,97514.59
2022-12-13T07:14:56.267Z,97518.19
2022-12-13T07:16:02.274Z,97520.94
2022-12-13T07:17:05.919Z,97523.47
2022-12-13T07:18:12.120Z,97520.25
2022-12-13T07:19:23.968Z,97523.66
2022-12-13T07:20:31.273Z,97526.34
2022-12-13T07:21:39.318Z,97535.09
2022-12-13T07:22:49.188Z,97532.38
2022-12-13T07:23:57.573Z,97531.25
2022-12-13T07:25:00.924Z,97529.41
2022-12-13T07:26:10.256Z,97532.72
2022-12-13T07:27:16.211Z,97532.63
2022-12-13T07:28:22.640Z,97530.47
2022-12-13T07:29:26.040Z,97537.31
2022-12-13T07:30:32.237Z,97541.56
2022-12-13T07:31:39.770Z,97538.25
2022-12-13T07:32:45.887Z,97529.59
2022-12-13T07:33:51.865Z,97534.72
2022-12-13T07:34:55.219Z,97541.78
2022-12-13T07:36:04.923Z,97540.13
2022-12-13T07:37:30.447Z,97547.59
2022-12-13T07:38:37.291Z,97542.22
2022-12-13T07:39:40.633Z,97543.66
2022-12-13T07:40:46.511Z,97547.63
2022-12-13T07:41:52.557Z,97547.09
2022-12-13T07:42:59.386Z,97546.69
2022-12-13T07:44:05.332Z,97536.63
2022-12-13T07:45:12.713Z,97542.53
2022-12-13T07:46:23.475Z,97548.78
2022-12-13T07:47:39.079Z,97547.31
2022-12-13T07:48:47.129Z,97553.06
2022-12-13T07:49:53.100Z,97543.16
2022-12-13T07:51:07.143Z,97547.63
2022-12-13T07:52:14.587Z,97545.66
2022-12-13T07:53:21.054Z,97547.00
2022-12-13T07:54:28.162Z,97543.47
2022-12-13T07:55:34.282Z,97555.44
2022-12-13T07:56:41.263Z,97547.13
2022-12-13T07:57:47.123Z,97553.22
2022-12-13T07:58:55.696Z,97548.84
2022-12-13T08:00:02.635Z,97554.50
2022-12-13T08:01:18.776Z,97544.69
2022-12-13T08:02:24.795Z,97545.09
2022-12-13T08:03:31.224Z,97547.41
2022-12-13T08:04:38.100Z,97543.13
2022-12-13T08:05:45.655Z,97543.25
2022-12-13T08:06:51.966Z,97544.81
2022-12-13T08:07:58.022Z,97549.28
2022-12-13T08:09:04.049Z,97551.13
2022-12-13T08:10:10.799Z,97553.00
2022-12-13T08:11:19.224Z,97554.75
2022-12-13T08:12:25.353Z,97548.13
2022-12-13T08:13:31.366Z,97553.13
2022-12-13T08:14:39.874Z,97556.88
2022-12-13T08:15:45.945Z,97553.53
2022-12-13T08:16:52.855Z,97554.25
2022-12-13T08:18:01.113Z,97552.88
2022-12-13T08:19:10.365Z,97558.78
2022-12-13T08:20:13.729Z,97549.81
2022-12-13T08:21:53.263Z,97548.84
2022-12-13T08:23:02.115Z,97553.72
2022-12-13T08:24:15.308Z,97554.19
2022-12-13T08:25:21.821Z,97547.66
2022-12-13T08:26:25.270Z,97558.94
2022-12-13T08:27:31.464Z,97556.72
2022-12-13T08:28:38.892Z,97560.72
2022-12-13T08:29:47.664Z,97566.22
2022-12-13T08:30:55.556Z,97556.28
2022-12-13T08:32:01.806Z,97557.69
2022-12-13T08:33:08.056Z,97567.22
2022-12-13T08:34:14.804Z,97558.84
2022-12-13T08:35:21.077Z,97561.25
2022-12-13T08:36:27.570Z,97564.69
2022-12-13T08:37:30.865Z,97562.28
2022-12-13T08:38:36.844Z,97562.44
2022-12-13T08:39:44.770Z,97568.22
2022-12-13T08:40:51.664Z,97566.28
2022-12-13T08:41:57.722Z,97566.28
2022-12-13T08:43:03.833Z,97568.41
2022-12-13T08:44:10.006Z,97568.25
2022-12-13T08:45:19.561Z,97572.66
2022-12-13T08:46:25.688Z,97574.63
2022-12-13T08:47:32.733Z,97573.56
2022-12-13T08:48:44.895Z,97580.94
2022-12-13T08:49:48.558Z,97573.50
2022-12-13T08:50:55.456Z,97580.56
2022-12-13T08:52:02.923Z,97566.53
2022-12-13T08:53:09.255Z,97577.28
2022-12-13T08:54:31.111Z,97579.06
2022-12-13T08:55:37.845Z,97575.81
2022-12-13T08:56:45.064Z,97572.66
2022-12-13T08:57:51.147Z,97586.28
2022-12-13T08:58:58.224Z,97581.69
2022-12-13T09:00:04.180Z,97578.84
2022-12-13T09:01:13.746Z,97559.28
2022-12-13T09:02:20.772Z,97577.69
2022-12-13T09:03:26.859Z,97575.19
2022-12-13T09:04:32.993Z,97580.66
2022-12-13T09:05:38.953Z,97575.47
2022-12-13T09:06:46.234Z,97574.75
2022-12-13T09:07:58.441Z,97578.31
2022-12-13T09:09:08.187Z,97583.63
2022-12-13T09:10:27.053Z,97584.59
2022-12-13T09:11:39.883Z,97581.84
2022-12-13T09:12:46.823Z,97577.22
2022-12-13T09:13:53.667Z,97576.09
2022-12-13T09:15:23.017Z,97575.19
2022-12-13T09:16:35.652Z,97580.94
2022-12-13T09:17:42.242Z,97583.13
2022-12-13T09:18:55.102Z,97585.50
2022-12-13T09:20:02.892Z,97578.81
2022-12-13T09:21:22.476Z,97573.03
2022-12-13T09:22:38.156Z,97570.56
2022-12-13T09:23:53.141Z,97578.44
2022-12-13T09:25:15.069Z,97577.19
2022-12-13T09:26:38.382Z,97577.75
2022-12-13T09:27:44.617Z,97574.63
2022-12-13T09:28:51.382Z,97570.72
2022-12-13T09:29:57.679Z,97579.28
2022-12-13T09:31:04.707Z,97573.81
2022-12-13T09:32:13.432Z,97580.88
2022-12-13T09:33:30.191Z,97576.75
2022-12-13T09:34:37.052Z,97577.28
2022-12-13T09:35:44.975Z,97582.19
2022-12-13T09:36:51.890Z,97576.63
2022-12-13T09:37:59.186Z,97571.69
2022-12-13T09:39:05.343Z,97577.38
2022-12-13T09:40:25.374Z,97579.19
2022-12-13T09:41:41.370Z,97579.22
2022-12-13T09:43:12.374Z,97575.72
2022-12-13T09:44:32.294Z,97574.78
2022-12-13T09:45:50.909Z,97577.53
2022-12-13T09:47:02.668Z,97583.78
2022-12-13T09:48:14.088Z,97574.28
2022-12-13T09:49:37.470Z,97568.84
2022-12-13T09:50:51.564Z,97582.44
2022-12-13T09:52:21.325Z,97585.91
2022-12-13T09:53:33.910Z,97569.66
2022-12-13T09:54:48.255Z,97574.38
2022-12-13T09:56:09.936Z,97583.03
2022-12-13T09:57:32.061Z,97579.59
2022-12-13T09:58:40.634Z,97589.41
2022-12-13T09:59:47.043Z,97575.56
2022-12-13T10:00:58.081Z,97583.72
2022-12-13T10:02:20.738Z,97581.28
2022-12-13T10:03:31.009Z,97585.50
2022-12-13T10:04:37.052Z,97578.25
2022-12-13T10:05:47.332Z,97560.81
2022-12-13T10:06:57.018Z,97580.66
2022-12-13T10:08:12.306Z,97586.38
2022-12-13T10:09:19.050Z,97584.00
2022-12-13T10:10:26.106Z,97576.50
2022-12-13T10:11:33.560Z,97579.13
2022-12-13T10:12:40.573Z,97587.44
2022-12-13T10:13:54.915Z,97570.59
2022-12-13T10:15:06.374Z,97577.13
2022-12-13T10:16:36.312Z,97578.19
2022-12-13T10:17:51.538Z,97575.25
2022-12-13T10:19:28.498Z,97574.00
2022-12-13T10:20:38.227Z,97579.22
2022-12-13T10:21:48.856Z,97567.41
2022-12-13T10:23:31.415Z,97571.91
2022-12-13T10:24:32.942Z,97565.53
2022-12-13T10:25:54.981Z,97571.66
2022-12-13T10:27:21.651Z,97571.31
2022-12-13T10:28:34.007Z,97570.34
2022-12-13T10:30:05.950Z,97566.53
2022-12-13T10:31:18.391Z,97563.91
2022-12-13T10:32:22.778Z,97574.00
2022-12-13T10:33:34.968Z,97566.19
2022-12-13T10:34:44.698Z,97566.84
2022-12-13T10:36:11.263Z,97562.91
2022-12-13T10:37:33.441Z,97564.91
2022-12-13T10:38:43.944Z,97550.56
2022-12-13T10:39:48.102Z,97565.53
2022-12-13T10:40:54.258Z,97560.41
2022-12-13T10:42:09.249Z,97559.19
2022-12-13T10:43:18.918Z,97560.41
2022-12-13T10:44:27.403Z,97559.84
2022-12-13T10:45:31.679Z,97562.84
2022-12-13T10:46:40.720Z,97559.75
2022-12-13T10:47:48.763Z,97555.03
2022-12-13T10:48:56.142Z,97560.88
2022-12-13T10:50:06.737Z,97556.81
2022-12-13T10:51:18.021Z,97553.47
2022-12-13T10:52:32.061Z,97561.41
2022-12-13T10:53:47.861Z,97557.25
2022-12-13T10:54:52.854Z,97556.66
2022-12-13T10:56:09.400Z,97554.88
2022-12-13T10:57:13.678Z,97562.25
2022-12-13T10:58:23.642Z,97556.91
2022-12-13T10:59:36.890Z,97552.06
2022-12-13T11:00:47.809Z,97558.59
2022-12-13T11:01:51.893Z,97548.84
2022-12-13T11:02:58.895Z,97550.84
2022-12-13T11:04:08.427Z,97541.47
2022-12-13T11:05:34.149Z,97549.00
2022-12-13T11:06:47.256Z,97543.41
2022-12-13T11:07:55.477Z,97544.53
2022-12-13T11:09:23.182Z,97546.31
2022-12-13T11:10:32.591Z,97539.31
2022-12-13T11:11:38.632Z,97550.59
2022-12-13T11:12:46.054Z,97547.41
2022-12-13T11:14:01.791Z,97546.19
2022-12-13T11:15:23.108Z,97544.78
2022-12-13T11:16:35.849Z,97547.00
2022-12-13T11:17:54.665Z,97536.00
2022-12-13T11:19:05.545Z,97541.72
2022-12-13T11:20:24.490Z,97545.09
2022-12-13T11:21:39.433Z,97550.34
2022-12-13T11:22:46.329Z,97541.91
2022-12-13T11:23:52.403Z,97537.88
2022-12-13T11:25:11.164Z,97544.72
2022-12-13T11:26:25.916Z,97539.38
2022-12-13T11:28:01.242Z,97539.16
2022-12-13T11:29:44.937Z,97528.34
2022-12-13T11:31:12.439Z,97540.53
2022-12-13T11:32:44.453Z,97533.19
2022-12-13T11:34:08.435Z,97524.47
2022-12-13T11:35:28.605Z,97534.31
2022-12-13T11:36:52.288Z,97531.13
2022-12-13T11:38:19.745Z,97537.50
2022-12-13T11:39:36.242Z,97537.06
2022-12-13T11:40:52.413Z,97529.56
2022-12-13T11:42:14.006Z,97540.22
2022-12-13T11:43:40.569Z,97526.63
2022-12-13T11:45:03.116Z,97537.94
2022-12-13T11:46:22.940Z,97538.50
2022-12-13T11:47:40.753Z,97543.19
2022-12-13T11:48:59.536Z,97537.25
2022-12-13T11:50:33.087Z,97546.66
2022-12-13T11:51:51.972Z,97534.47
2022-12-13T11:53:20.111Z,97540.41
2022-12-13T11:54:41.263Z,97540.41
2022-12-13T11:55:58.361Z,97542.53
2022-12-13T11:57:21.712Z,97540.38
2022-12-13T12:00:33.858Z,97545.34
2022-12-13T12:01:53.069Z,97541.06
2022-12-13T12:03:16.321Z,97546.69
2022-12-13T12:04:37.622Z,97540.06
2022-12-13T12:05:55.938Z,97542.25
2022-12-13T12:07:32.539Z,97549.03
2022-12-13T12:08:49.616Z,97538.91
2022-12-13T12:10:12.678Z,97540.63
2022-12-13T12:11:34.312Z,97541.81
2022-12-13T12:12:45.972Z,97535.94
2022-12-13T12:14:02.115Z,97540.47
2022-12-13T12:15:18.477Z,97536.31
2022-12-13T12:16:46.487Z,97533.63
2022-12-13T12:17:52.771Z,97542.50
2022-12-13T12:19:01.414Z,97539.66
2022-12-13T12:20:23.272Z,97533.09
2022-12-13T12:22:12.691Z,97546.34
2022-12-13T12:23:31.586Z,97535.13
2022-12-13T12:25:03.545Z,97543.88
2022-12-13T12:26:17.812Z,97539.53
2022-12-13T12:27:43.713Z,97540.03
2022-12-13T12:29:24.052Z,97542.47
2022-12-13T12:30:51.841Z,97540.03
2022-12-13T12:32:13.965Z,97536.63
2022-12-13T12:33:37.966Z,97530.47
2022-12-13T12:35:04.624Z,97539.38
2022-12-13T12:36:43.852Z,97541.66
2022-12-13T12:38:12.967Z,97537.06
2022-12-13T12:39:54.288Z,97544.56
2022-12-13T12:41:27.532Z,97539.06
2022-12-13T12:43:15.310Z,97540.94
2022-12-13T12:44:47.872Z,97533.19
2022-12-13T12:46:20.381Z,97537.34
2022-12-13T12:48:41.310Z,97533.22
2022-12-13T12:49:55.167Z,97531.66
2022-12-13T12:51:13.962Z,97526.91
2022-12-13T12:52:34.997Z,97533.78
2022-12-13T12:53:54.149Z,97530.75
2022-12-13T12:55:21.838Z,97539.44
2022-12-13T12:56:48.254Z,97536.75
2022-12-13T12:58:18.637Z,97528.56
2022-12-13T12:59:42.438Z,97537.38
2022-12-13T13:01:11.271Z,97535.50
2022-12-13T13:02:29.591Z,97546.88
2022-12-13T13:03:44.658Z,97534.84
2022-12-13T13:05:00.987Z,97540.41
2022-12-13T13:06:18.984Z,97539.00
2022-12-13T13:07:39.996Z,97536.38
2022-12-13T13:08:55.616Z,97533.13
2022-12-13T13:10:25.923Z,97543.53
2022-12-13T13:11:43.027Z,97541.66
2022-12-13T13:12:50.512Z,97540.72
2022-12-13T13:14:28.833Z,97545.81
2022-12-13T13:15:59.535Z,97539.00
2022-12-13T13:17:50.529Z,97546.66
2022-12-13T13:18:56.163Z,97541.28
2022-12-13T13:20:23.587Z,97548.25
2022-12-13T13:21:53.833Z,97537.53
2022-12-13T13:23:39.868Z,97542.72
2022-12-13T13:24:31.658Z,97543.34
2022-12-13T13:26:07.720Z,97534.66
2022-12-13T13:27:32.751Z,97545.88
2022-12-13T13:28:40.652Z,97543.31
2022-12-13T13:29:47.817Z,97544.69
2022-12-13T13:31:10.450Z,97543.28
2022-12-13T13:32:34.702Z,97551.09
2022-12-13T13:33:53.520Z,97546.63
2022-12-13T13:35:53.897Z,97545.59
2022-12-13T13:37:02.438Z,97548.28
2022-12-13T13:39:01.644Z,97547.38
2022-12-13T13:40:37.399Z,97553.44
2022-12-13T13:42:20.266Z,97545.53
2022-12-13T13:43:34.652Z,97547.94
2022-12-13T13:45:27.317Z,97548.84
2022-12-13T13:46:31.066Z,97548.47
2022-12-13T13:47:46.648Z,97549.50
2022-12-13T13:49:12.155Z,97551.50
2022-12-13T13:51:28.060Z,97552.31
2022-12-13T13:52:59.464Z,97556.06
2022-12-13T13:55:20.501Z,97556.47
2022-12-13T13:56:50.192Z,97566.78
2022-12-13T13:58:40.593Z,97564.56
2022-12-13T14:00:23.356Z,97560.59
2022-12-13T14:02:13.491Z,97561.50
2022-12-13T14:04:24.672Z,97568.38
2022-12-13T14:06:26.547Z,97578.94
2022-12-13T14:08:20.573Z,97575.03
2022-12-13T14:10:17.887Z,97581.16
2022-12-13T14:12:25.732Z,97585.13
2022-12-13T14:14:38.683Z,97572.19
2022-12-13T14:16:35.913Z,97577.69
2022-12-13T14:18:32.897Z,97577.88
2022-12-13T14:20:31.919Z,97588.81
2022-12-13T14:22:05.723Z,97585.13
2022-12-13T14:23:32.238Z,97584.09